Time;durP1;ratioP1;P1;durP2;ratioP2;P2;SDS_P1;SDS_P2;PMS_P1;PMS_P2;Temp;Humidity;BMP_temperature;BMP_pressure;BME280_temperature;BME280_humidity;BME280_pressure;Samples;Min_cycle;Max_cycle;Signal;HPM_P1;HPM_P2
2021/04/25 00:00:13;;;;;;;19.05;7.03;;;;;;;5.51;52.43;101232.56;1698833;83;21478;-72
2021/04/25 00:02:41;;;;;;;18.15;6.65;;;;;;;5.49;52.37;101235.78;1725515;83;21126;-72
2021/04/25 00:05:10;;;;;;;19.27;7.37;;;;;;;5.48;52.31;101234.13;1714143;83;21181;-72
2021/04/25 00:07:36;;;;;;;17.45;6.55;;;;;;;5.46;52.25;101227.23;1699525;84;21227;-73
2021/04/25 00:10:04;;;;;;;13.70;6.42;;;;;;;5.44;52.21;101224.73;1711181;82;21193;-72
2021/04/25 00:12:31;;;;;;;15.40;6.90;;;;;;;5.44;52.11;101232.66;1754741;81;21542;-72
2021/04/25 00:14:57;;;;;;;27.85;12.33;;;;;;;5.43;52.03;101230.97;1761200;81;21607;-72
2021/04/25 00:17:24;;;;;;;42.23;13.08;;;;;;;5.42;51.97;101231.92;1767691;81;21150;-73
2021/04/25 00:19:50;;;;;;;31.12;10.60;;;;;;;5.41;51.91;101230.26;1767340;81;21990;-73
2021/04/25 00:22:17;;;;;;;21.05;8.70;;;;;;;5.41;51.86;101221.47;1767743;81;21175;-73
2021/04/25 00:24:43;;;;;;;56.73;17.12;;;;;;;5.38;51.81;101221.20;1768261;81;21158;-73
2021/04/25 00:27:09;;;;;;;61.48;20.35;;;;;;;5.37;51.77;101213.41;1768333;81;21163;-72
2021/04/25 00:29:36;;;;;;;48.58;17.35;;;;;;;5.36;51.75;101212.56;1768304;81;21126;-73
2021/04/25 00:32:03;;;;;;;121.35;42.03;;;;;;;5.36;51.72;101213.88;1768257;81;21163;-73
2021/04/25 00:34:30;;;;;;;125.25;42.48;;;;;;;5.34;51.71;101211.84;1767903;81;21175;-73
2021/04/25 00:36:56;;;;;;;69.95;23.45;;;;;;;5.32;51.71;101208.45;1767650;81;21163;-73
2021/04/25 00:39:22;;;;;;;53.08;19.15;;;;;;;5.28;51.72;101207.00;1767788;81;21184;-73
2021/04/25 00:41:49;;;;;;;50.83;19.70;;;;;;;5.26;51.74;101207.61;1768365;81;21155;-73
2021/04/25 00:44:15;;;;;;;63.60;24.00;;;;;;;5.25;51.81;101209.03;1768367;81;21151;-73
2021/04/25 00:46:41;;;;;;;48.40;17.40;;;;;;;5.23;51.86;101209.16;1768356;81;21187;-73
2021/04/25 00:49:08;;;;;;;34.18;12.23;;;;;;;5.21;51.93;101208.42;1768280;81;21146;-72
2021/04/25 00:51:34;;;;;;;22.75;9.75;;;;;;;5.19;52.00;101207.70;1767690;81;21139;-73
2021/04/25 00:54:01;;;;;;;21.65;9.50;;;;;;;5.16;52.06;101206.63;1765708;81;21163;-73
2021/04/25 00:56:28;;;;;;;18.52;8.33;;;;;;;5.13;52.17;101202.89;1767646;81;21252;-73
2021/04/25 00:58:54;;;;;;;34.38;14.15;;;;;;;5.12;52.25;101202.52;1767665;81;21159;-73
2021/04/25 01:01:20;;;;;;;39.78;14.83;;;;;;;5.11;52.30;101198.18;1739658;81;21175;-72
2021/04/25 01:03:47;;;;;;;46.28;15.83;;;;;;;5.10;52.35;101195.67;1767721;81;21191;-73
2021/04/25 01:06:13;;;;;;;47.08;15.58;;;;;;;5.10;52.38;101195.20;1767720;81;21576;-72
2021/04/25 01:08:39;;;;;;;33.90;12.78;;;;;;;5.08;52.39;101194.45;1767745;81;21208;-73
2021/04/25 01:11:05;;;;;;;33.78;12.13;;;;;;;5.09;52.43;101200.11;1750457;80;21180;-73
2021/04/25 01:13:32;;;;;;;27.15;9.88;;;;;;;5.06;52.43;101195.05;1737375;81;21203;-73
2021/04/25 01:15:58;;;;;;;28.60;9.90;;;;;;;5.05;52.40;101202.61;1737642;82;21149;-72
2021/04/25 01:18:24;;;;;;;22.65;8.23;;;;;;;5.03;52.45;101197.42;1737792;82;21129;-72
2021/04/25 01:20:59;;;;;;;24.72;9.70;;;;;;;5.01;52.47;101191.42;1725203;82;21215;-72
2021/04/25 01:23:26;;;;;;;24.60;9.55;;;;;;;5.01;52.49;101193.22;1735786;82;21203;-72
2021/04/25 01:25:53;;;;;;;30.88;11.65;;;;;;;5.01;52.50;101198.51;1707980;84;21664;-72
2021/04/25 01:28:19;;;;;;;43.15;14.20;;;;;;;4.99;52.54;101188.55;1735847;82;21624;-72
2021/04/25 01:30:45;;;;;;;45.52;14.45;;;;;;;4.98;52.57;101193.45;1708110;84;21176;-72
2021/04/25 01:33:12;;;;;;;40.88;13.08;;;;;;;4.95;52.62;101196.33;1735887;82;21194;-72
2021/04/25 01:35:38;;;;;;;28.95;12.50;;;;;;;4.92;52.64;101199.20;1735887;82;21179;-72
2021/04/25 01:38:04;;;;;;;36.38;14.15;;;;;;;4.90;52.71;101190.53;1707888;83;21137;-72
2021/04/25 01:40:31;;;;;;;33.18;14.15;;;;;;;4.88;52.79;101189.81;1735842;82;21246;-72
2021/04/25 01:42:59;;;;;;;38.08;12.65;;;;;;;4.86;52.84;101191.71;1735961;82;21188;-72
2021/04/25 01:45:27;;;;;;;24.07;9.73;;;;;;;4.84;52.90;101193.64;1707883;84;21278;-72
2021/04/25 01:47:56;;;;;;;15.23;6.15;;;;;;;4.82;52.96;101196.89;1735818;82;21182;-72
2021/04/25 01:50:24;;;;;;;10.75;4.87;;;;;;;4.79;53.00;101189.16;1715743;82;21166;-72
2021/04/25 01:52:50;;;;;;;17.42;4.97;;;;;;;4.78;53.00;101196.74;1728556;83;21191;-72
2021/04/25 01:55:17;;;;;;;14.23;5.08;;;;;;;4.75;53.00;101195.15;1729291;82;21152;-72
2021/04/25 01:57:43;;;;;;;14.13;5.20;;;;;;;4.74;52.96;101199.24;1735829;82;21456;-72
2021/04/25 02:00:14;;;;;;;11.83;5.20;;;;;;;4.70;52.91;101197.78;1715784;82;21208;-73
2021/04/25 02:02:43;;;;;;;14.68;5.62;;;;;;;4.68;52.85;101193.09;1738879;81;21136;-72
2021/04/25 02:05:10;;;;;;;9.25;4.50;;;;;;;4.65;52.81;101190.66;1708923;82;21140;-72
2021/04/25 02:07:36;;;;;;;10.60;4.95;;;;;;;4.61;52.79;101191.36;1707808;84;21144;-72
2021/04/25 02:10:06;;;;;;;13.60;4.50;;;;;;;4.58;52.78;101185.45;1735779;81;21371;-72
2021/04/25 02:12:32;;;;;;;14.05;4.83;;;;;;;4.54;52.75;101184.36;1744922;82;26417;-73
2021/04/25 02:14:59;;;;;;;13.00;5.10;;;;;;;4.54;52.72;101184.36;1767885;81;21170;-72
2021/04/25 02:17:25;;;;;;;10.55;4.75;;;;;;;4.52;52.71;101187.61;1739012;82;21155;-73
2021/04/25 02:19:52;;;;;;;10.80;3.60;;;;;;;4.51;52.69;101189.03;1767773;81;21159;-72
2021/04/25 02:22:18;;;;;;;7.80;3.70;;;;;;;4.48;52.68;101186.14;1738875;82;21565;-72
2021/04/25 02:24:44;;;;;;;8.15;3.85;;;;;;;4.46;52.66;101189.38;1767808;81;21158;-72
2021/04/25 02:27:11;;;;;;;20.25;6.08;;;;;;;4.44;52.65;101183.35;1739094;81;21183;-72
2021/04/25 02:29:37;;;;;;;14.43;5.00;;;;;;;4.40;52.62;101176.60;1767745;81;21159;-72
2021/04/25 02:32:04;;;;;;;16.12;5.83;;;;;;;4.39;52.61;101179.37;1743671;82;21124;-72
2021/04/25 02:34:31;;;;;;;13.83;5.15;;;;;;;4.36;52.60;101177.77;1746073;82;21213;-72
2021/04/25 02:36:58;;;;;;;11.33;4.03;;;;;;;4.34;52.62;101179.70;1745976;81;21197;-72
2021/04/25 02:39:24;;;;;;;10.95;3.50;;;;;;;4.32;52.58;101171.53;1746079;81;21124;-72
2021/04/25 02:41:51;;;;;;;5.92;2.87;;;;;;;4.30;52.58;101174.27;1746007;82;21136;-72
2021/04/25 02:44:17;;;;;;;9.18;2.92;;;;;;;4.28;52.55;101179.30;1746151;81;21147;-72
2021/04/25 02:46:44;;;;;;;22.52;13.05;;;;;;;4.23;52.55;101178.30;1746071;82;22107;-72
2021/04/25 02:49:10;;;;;;;16.75;7.90;;;;;;;4.18;52.54;101173.00;1743279;82;21183;-72
2021/04/25 02:51:37;;;;;;;8.90;4.40;;;;;;;4.14;52.53;101177.66;1767785;81;21198;-72
2021/04/25 02:54:03;;;;;;;21.97;12.15;;;;;;;4.11;52.52;101177.88;1751320;81;21565;-72
2021/04/25 02:56:30;;;;;;;18.20;9.78;;;;;;;4.08;52.53;101170.19;1756744;81;21762;-72
2021/04/25 02:58:56;;;;;;;13.85;7.42;;;;;;;4.03;52.52;101173.14;1752923;81;22056;-72
2021/04/25 03:01:23;;;;;;;17.62;6.95;;;;;;;4.00;52.53;101167.23;1746095;82;21151;-72
2021/04/25 03:03:49;;;;;;;24.02;9.70;;;;;;;3.94;52.55;101167.69;1745980;82;21152;-72
2021/04/25 03:06:17;;;;;;;23.60;9.08;;;;;;;3.89;52.57;101173.28;1746033;82;21120;-72
2021/04/25 03:08:43;;;;;;;26.12;10.10;;;;;;;3.86;52.61;101173.97;1745946;82;21196;-72
2021/04/25 03:11:10;;;;;;;27.40;8.98;;;;;;;3.84;52.64;101173.21;1746120;81;21636;-72
2021/04/25 03:13:36;;;;;;;28.35;10.18;;;;;;;3.83;52.64;101180.78;1745940;80;21144;-72
2021/04/25 03:16:03;;;;;;;18.37;6.65;;;;;;;3.80;52.69;101176.55;1746124;82;21159;-72
2021/04/25 03:18:29;;;;;;;14.80;6.33;;;;;;;3.77;52.73;101175.91;1745987;81;21644;-72
2021/04/25 03:20:56;;;;;;;18.30;7.33;;;;;;;3.75;52.77;101173.41;1746067;82;21153;-72
2021/04/25 03:23:22;;;;;;;19.30;7.83;;;;;;;3.73;52.85;101169.19;1746082;82;21193;-72
2021/04/25 03:25:49;;;;;;;15.28;6.90;;;;;;;3.73;52.90;101166.55;1746012;82;21176;-72
2021/04/25 03:28:15;;;;;;;15.18;5.80;;;;;;;3.69;52.93;101163.29;1750553;81;21160;-72
2021/04/25 03:30:41;;;;;;;8.90;4.60;;;;;;;3.66;52.99;101166.62;1756605;81;21148;-72
2021/04/25 03:33:08;;;;;;;8.95;5.15;;;;;;;3.61;53.05;101166.92;1754093;81;21131;-72
2021/04/25 03:35:35;;;;;;;9.50;4.03;;;;;;;3.57;53.13;101165.92;1756712;81;21250;-72
2021/04/25 03:38:01;;;;;;;7.25;3.95;;;;;;;3.51;53.21;101166.73;1753925;81;21612;-72
2021/04/25 03:40:27;;;;;;;11.22;6.15;;;;;;;3.47;53.27;101163.93;1735227;81;21155;-72
2021/04/25 03:42:53;;;;;;;13.83;9.35;;;;;;;3.41;53.34;101164.33;1745985;81;21124;-72
2021/04/25 03:45:20;;;;;;;18.75;9.45;;;;;;;3.35;53.40;101163.91;1746122;82;21172;-72
2021/04/25 03:47:49;;;;;;;12.75;7.65;;;;;;;3.29;53.48;101159.06;1745937;81;21136;-72
2021/04/25 03:50:18;;;;;;;8.28;5.10;;;;;;;3.26;53.54;101162.77;1746130;82;21180;-72
2021/04/25 03:52:45;;;;;;;9.30;3.92;;;;;;;3.19;53.57;101164.12;1746224;81;21116;-72
2021/04/25 03:55:13;;;;;;;7.25;3.02;;;;;;;3.12;53.65;101164.64;1745803;82;21573;-72
2021/04/25 03:57:39;;;;;;;5.50;2.90;;;;;;;3.03;53.74;101161.67;1767820;81;21155;-71
2021/04/25 04:00:09;;;;;;;11.03;4.30;;;;;;;2.97;53.87;101175.27;1738918;81;21215;-72
2021/04/25 04:02:35;;;;;;;11.50;4.10;;;;;;;2.93;53.97;101170.30;1767961;81;21135;-72
2021/04/25 04:05:01;;;;;;;11.05;3.98;;;;;;;2.94;54.07;101171.99;1767683;81;21178;-72
2021/04/25 04:07:28;;;;;;;14.80;6.10;;;;;;;2.94;54.13;101164.94;1738850;82;21164;-72
2021/04/25 04:09:54;;;;;;;11.30;5.35;;;;;;;3.04;54.21;101173.06;1767760;81;21127;-72
2021/04/25 04:12:20;;;;;;;16.52;6.62;;;;;;;3.33;54.37;101167.98;1752339;81;21279;-72
2021/04/25 04:14:47;;;;;;;14.40;6.80;;;;;;;3.87;54.52;101172.52;1759674;80;21616;-72
2021/04/25 04:17:13;;;;;;;15.40;5.42;;;;;;;4.71;54.57;101163.34;1759624;81;21155;-72
2021/04/25 04:19:40;;;;;;;14.58;6.25;;;;;;;5.54;54.47;101170.62;1759622;81;21202;-72
2021/04/25 04:22:07;;;;;;;12.85;6.33;;;;;;;6.40;54.22;101171.67;1759644;81;21167;-73
2021/04/25 04:24:33;;;;;;;16.65;7.25;;;;;;;7.62;53.99;101162.76;1759724;81;21157;-73
2021/04/25 04:27:00;;;;;;;16.15;7.80;;;;;;;8.79;53.63;101159.82;1759535;81;21195;-73
2021/04/25 04:29:28;;;;;;;16.02;8.08;;;;;;;9.68;53.21;101167.86;1758074;81;21522;-73
2021/04/25 04:31:54;;;;;;;15.58;7.42;;;;;;;10.45;52.78;101161.19;1756660;81;21143;-73
2021/04/25 04:34:20;;;;;;;8.80;4.50;;;;;;;11.13;52.20;101162.84;1759231;81;21175;-73
2021/04/25 04:36:47;;;;;;;5.90;3.50;;;;;;;11.35;51.61;101161.02;1759596;81;21648;-73
2021/04/25 04:39:13;;;;;;;6.37;3.10;;;;;;;11.61;51.27;101166.86;1759602;81;21163;-73
2021/04/25 04:41:39;;;;;;;7.08;3.70;;;;;;;11.48;50.66;101162.77;1759774;81;21155;-73
2021/04/25 04:44:06;;;;;;;10.28;3.87;;;;;;;11.15;49.86;101166.21;1759672;81;21151;-73
2021/04/25 04:46:32;;;;;;;12.00;5.25;;;;;;;10.17;49.29;101166.20;1759647;81;21164;-73
2021/04/25 04:48:59;;;;;;;10.68;4.97;;;;;;;10.44;49.60;101166.20;1759677;81;21210;-73
2021/04/25 04:51:25;;;;;;;7.62;3.37;;;;;;;11.46;49.29;101167.44;1759703;81;21155;-73
2021/04/25 04:53:51;;;;;;;6.58;3.22;;;;;;;12.00;48.47;101160.06;1759728;81;21151;-73
2021/04/25 04:56:17;;;;;;;6.05;2.90;;;;;;;12.39;47.72;101160.38;1759739;81;21617;-73
2021/04/25 04:58:44;;;;;;;8.85;3.37;;;;;;;12.75;47.01;101163.63;1759885;81;21151;-73
2021/04/25 05:01:10;;;;;;;12.13;5.42;;;;;;;12.57;45.86;101165.11;1759688;81;21315;-74
2021/04/25 05:03:36;;;;;;;7.03;3.90;;;;;;;11.80;45.08;101163.98;1759808;81;21183;-74
2021/04/25 05:06:04;;;;;;;7.25;3.10;;;;;;;11.03;45.15;101168.77;1759751;81;21646;-74
2021/04/25 05:08:30;;;;;;;6.80;3.15;;;;;;;10.33;45.35;101170.41;1757577;81;21163;-74
2021/04/25 05:10:56;;;;;;;8.75;4.40;;;;;;;9.86;45.49;101168.28;1756838;81;22042;-73
2021/04/25 05:13:23;;;;;;;14.43;4.85;;;;;;;9.80;45.58;101168.87;1748887;80;21973;-74
2021/04/25 05:15:49;;;;;;;6.17;2.60;;;;;;;9.86;45.57;101166.11;1748484;82;21180;-74
2021/04/25 05:18:15;;;;;;;8.88;3.20;;;;;;;9.81;45.53;101167.06;1756577;81;21585;-74
2021/04/25 05:20:41;;;;;;;12.07;6.53;;;;;;;9.70;45.40;101168.56;1726546;83;21127;-74
2021/04/25 05:23:08;;;;;;;17.48;8.85;;;;;;;9.79;45.37;101167.68;1755001;81;21123;-74
2021/04/25 05:25:34;;;;;;;16.12;8.83;;;;;;;9.90;45.23;101162.17;1763771;81;22706;-74
2021/04/25 05:28:00;;;;;;;15.38;8.30;;;;;;;9.91;45.15;101170.52;1762310;81;21655;-74
2021/04/25 05:30:27;;;;;;;14.23;4.87;;;;;;;9.89;45.02;101172.47;1756576;81;21167;-73
2021/04/25 05:32:53;;;;;;;7.37;2.15;;;;;;;9.98;44.90;101176.94;1756568;81;21156;-74
2021/04/25 05:35:19;;;;;;;4.67;2.30;;;;;;;9.86;44.72;101172.28;1757233;81;21180;-73
2021/04/25 05:37:45;;;;;;;5.83;1.72;;;;;;;9.85;44.58;101177.25;1764727;81;21588;-73
2021/04/25 05:40:13;;;;;;;5.40;1.62;;;;;;;9.68;44.27;101174.02;1764547;81;21194;-73
2021/04/25 05:42:39;;;;;;;5.12;1.72;;;;;;;9.33;44.02;101180.00;1764628;81;21191;-73
2021/04/25 05:45:07;;;;;;;5.25;1.77;;;;;;;9.17;43.93;101182.90;1764618;81;21604;-73
2021/04/25 05:47:33;;;;;;;8.00;1.65;;;;;;;9.15;43.79;101179.55;1764577;81;21140;-73
2021/04/25 05:50:00;;;;;;;3.25;1.57;;;;;;;9.12;43.69;101182.47;1764584;81;21204;-73
2021/04/25 05:52:26;;;;;;;4.10;2.27;;;;;;;9.20;43.62;101180.80;1764542;81;21179;-73
2021/04/25 05:54:53;;;;;;;6.03;1.87;;;;;;;9.15;43.50;101177.70;1764685;81;21179;-73
2021/04/25 05:57:19;;;;;;;5.20;1.85;;;;;;;8.98;43.31;101183.74;1764563;81;21199;-73
2021/04/25 05:59:46;;;;;;;4.30;1.62;;;;;;;8.82;43.25;101182.14;1764741;81;21155;-73
2021/04/25 06:02:12;;;;;;;5.85;2.10;;;;;;;8.78;43.19;101192.70;1764482;81;21191;-73
2021/04/25 06:04:41;;;;;;;5.20;1.70;;;;;;;8.92;43.23;101186.97;1761134;81;21196;-73
2021/04/25 06:07:07;;;;;;;3.08;1.50;;;;;;;9.15;43.21;101185.69;1763260;81;21179;-73
2021/04/25 06:09:33;;;;;;;3.52;1.65;;;;;;;9.13;43.12;101189.00;1764347;81;21123;-73
2021/04/25 06:11:59;;;;;;;6.12;2.02;;;;;;;8.95;43.08;101197.33;1761382;81;21148;-74
2021/04/25 06:14:25;;;;;;;3.47;1.72;;;;;;;8.70;43.03;101192.06;1750844;80;22008;-74
2021/04/25 06:16:52;;;;;;;6.37;1.77;;;;;;;8.64;43.06;101195.28;1750824;81;21183;-73
2021/04/25 06:19:19;;;;;;;3.67;1.62;;;;;;;8.67;43.06;101199.47;1750839;81;21172;-74
2021/04/25 06:21:45;;;;;;;3.25;1.40;;;;;;;8.70;43.07;101196.53;1750954;82;21143;-73
2021/04/25 06:24:12;;;;;;;4.65;2.02;;;;;;;8.69;43.08;101190.89;1750905;82;21140;-73
2021/04/25 06:26:38;;;;;;;4.10;2.17;;;;;;;8.71;43.10;101189.77;1750855;82;21593;-73
2021/04/25 06:29:05;;;;;;;3.72;1.45;;;;;;;8.73;43.10;101192.27;1750880;82;21156;-74
2021/04/25 06:31:32;;;;;;;6.65;2.15;;;;;;;8.66;43.12;101189.81;1750756;81;21211;-74
2021/04/25 06:34:00;;;;;;;8.13;2.30;;;;;;;8.63;43.15;101188.76;1751301;81;21140;-74
2021/04/25 06:36:26;;;;;;;8.30;2.40;;;;;;;8.78;43.17;101179.41;1750937;81;21607;-73
2021/04/25 06:38:53;;;;;;;7.53;3.77;;;;;;;8.80;43.25;101184.08;1750797;82;21311;-73
2021/04/25 06:41:19;;;;;;;3.40;1.50;;;;;;;8.92;43.28;101178.50;1750860;82;21172;-74
2021/04/25 06:43:45;;;;;;;4.80;1.40;;;;;;;8.99;43.36;101182.77;1750818;82;21140;-73
2021/04/25 06:46:11;;;;;;;3.52;1.77;;;;;;;8.87;43.35;101182.55;1750756;82;21195;-73
2021/04/25 06:48:38;;;;;;;4.95;1.70;;;;;;;8.91;43.36;101186.61;1750800;81;21168;-73
2021/04/25 06:51:04;;;;;;;4.62;1.75;;;;;;;8.87;43.32;101189.20;1750886;82;22062;-73
2021/04/25 06:53:30;;;;;;;7.55;2.12;;;;;;;8.82;43.35;101180.81;1750799;82;21204;-74
2021/04/25 06:55:57;;;;;;;5.30;2.30;;;;;;;8.96;43.41;101177.73;1750941;81;21172;-74
2021/04/25 06:58:23;;;;;;;10.90;3.67;;;;;;;9.16;43.33;101180.73;1751521;81;21172;-74
2021/04/25 07:00:49;;;;;;;11.28;3.55;;;;;;;9.30;43.35;101179.45;1756132;81;21647;-74
2021/04/25 07:03:16;;;;;;;5.80;2.17;;;;;;;9.47;43.38;101173.38;1755750;81;22293;-74
2021/04/25 07:05:42;;;;;;;5.35;1.98;;;;;;;9.52;43.23;101183.97;1756156;81;21183;-74
2021/04/25 07:08:08;;;;;;;7.05;3.58;;;;;;;9.44;43.12;101182.50;1756187;81;21131;-74
2021/04/25 07:10:35;;;;;;;5.22;1.80;;;;;;;9.44;43.02;101186.98;1756016;81;21120;-74
2021/04/25 07:13:01;;;;;;;2.92;1.50;;;;;;;9.44;42.87;101191.82;1760571;81;21139;-74
2021/04/25 07:15:27;;;;;;;4.30;1.30;;;;;;;9.30;42.65;101192.27;1764388;79;21204;-74
2021/04/25 07:17:55;;;;;;;5.65;2.15;;;;;;;9.41;42.61;101185.45;1764472;81;21600;-74
2021/04/25 07:20:22;;;;;;;6.55;2.72;;;;;;;9.48;42.41;101189.23;1764538;81;21167;-74
2021/04/25 07:22:48;;;;;;;3.37;1.20;;;;;;;9.42;42.19;101181.82;1764588;81;21171;-74
2021/04/25 07:25:15;;;;;;;4.42;1.40;;;;;;;9.43;42.08;101184.81;1765257;81;21565;-75
2021/04/25 07:27:41;;;;;;;5.28;3.55;;;;;;;9.47;41.97;101183.55;1759962;81;21607;-75
2021/04/25 07:30:08;;;;;;;4.97;1.10;;;;;;;9.72;41.98;101186.56;1756026;81;21151;-75
2021/04/25 07:32:35;;;;;;;8.18;1.82;;;;;;;9.94;41.88;101178.22;1743682;81;21128;-74
2021/04/25 07:35:02;;;;;;;3.85;1.30;;;;;;;10.07;41.83;101173.38;1723245;83;21624;-74
2021/04/25 07:37:28;;;;;;;8.48;5.40;;;;;;;9.93;41.69;101181.86;1673573;85;21635;-76
2021/04/25 07:39:54;;;;;;;4.00;1.90;;;;;;;9.79;41.66;101175.67;1703281;84;22089;-73
2021/04/25 07:42:21;;;;;;;4.28;1.95;;;;;;;10.00;41.68;101173.63;1760063;81;21174;-75
2021/04/25 07:44:47;;;;;;;8.03;2.98;;;;;;;10.29;41.63;101175.69;1767765;81;21130;-74
2021/04/25 07:47:14;;;;;;;9.08;4.22;;;;;;;10.57;41.61;101170.31;1767757;81;21107;-74
2021/04/25 07:49:40;;;;;;;6.37;2.55;;;;;;;10.34;41.35;101160.59;1767623;81;21599;-74
2021/04/25 07:52:07;;;;;;;4.20;2.47;;;;;;;9.91;41.23;101165.19;1767949;81;21193;-74
2021/04/25 07:54:33;;;;;;;5.37;2.50;;;;;;;9.90;41.16;101161.69;1767693;81;21170;-74
2021/04/25 07:57:00;;;;;;;4.25;1.50;;;;;;;10.00;41.07;101170.95;1767702;81;21186;-74
2021/04/25 07:59:27;;;;;;;3.52;1.80;;;;;;;10.09;41.03;101162.09;1767784;81;21608;-74
2021/04/25 08:01:53;;;;;;;4.70;1.55;;;;;;;10.25;41.01;101162.80;1767626;81;21111;-74
2021/04/25 08:04:19;;;;;;;3.22;1.20;;;;;;;10.38;40.99;101169.45;1767798;81;21175;-74
2021/04/25 08:06:45;;;;;;;4.03;1.40;;;;;;;10.42;40.93;101170.83;1767675;81;21150;-74
2021/04/25 08:09:11;;;;;;;4.15;1.80;;;;;;;10.37;40.82;101169.62;1767551;81;21173;-74
2021/04/25 08:11:38;;;;;;;3.50;1.85;;;;;;;10.45;40.83;101174.53;1751255;81;21147;-74
2021/04/25 08:14:04;;;;;;;3.70;1.85;;;;;;;10.64;40.88;101180.23;1728129;81;21151;-74
2021/04/25 08:16:31;;;;;;;6.87;2.58;;;;;;;10.62;40.75;101182.23;1726495;83;21223;-75
2021/04/25 08:18:57;;;;;;;4.40;1.60;;;;;;;10.59;40.66;101171.83;1726493;83;21203;-75
2021/04/25 08:21:30;;;;;;;3.08;1.40;;;;;;;10.76;40.61;101170.19;1748003;81;21147;-75
2021/04/25 08:23:56;;;;;;;4.28;1.40;;;;;;;10.92;40.31;101175.67;1756806;81;21179;-74
2021/04/25 08:26:23;;;;;;;4.65;1.40;;;;;;;10.77;40.08;101174.02;1756891;81;21615;-76
2021/04/25 08:28:49;;;;;;;3.52;1.32;;;;;;;10.85;40.05;101169.27;1756872;81;21625;-77
2021/04/25 08:31:16;;;;;;;2.25;1.10;;;;;;;11.01;40.01;101174.23;1756782;81;21134;-75
2021/04/25 08:33:42;;;;;;;5.47;1.02;;;;;;;11.09;39.75;101168.14;1756464;81;21135;-75
2021/04/25 08:36:08;;;;;;;2.92;1.50;;;;;;;11.07;39.63;101175.97;1756962;81;21147;-75
2021/04/25 08:38:34;;;;;;;3.85;1.32;;;;;;;11.18;39.54;101167.23;1757612;81;21128;-77
2021/04/25 08:41:03;;;;;;;2.05;0.95;;;;;;;11.13;39.23;101176.67;1759795;81;21933;-75
2021/04/25 08:43:31;;;;;;;4.83;1.90;;;;;;;11.12;38.89;101166.49;1758218;81;21184;-75
2021/04/25 08:45:58;;;;;;;2.12;1.27;;;;;;;11.12;38.89;101166.49;1756949;81;21160;-76
2021/04/25 08:48:28;;;;;;;3.45;0.98;;;;;;;11.10;38.47;101172.50;1754412;81;21603;-75
2021/04/25 08:50:53;;;;;;;5.15;2.00;;;;;;;11.14;38.43;101176.53;1740945;81;21155;-75
2021/04/25 08:53:19;;;;;;;4.47;2.20;;;;;;;11.04;38.24;101173.12;1755812;81;21595;-76
2021/04/25 08:55:46;;;;;;;2.92;1.20;;;;;;;11.03;38.26;101171.44;1745220;81;21205;-75
2021/04/25 08:58:14;;;;;;;4.83;1.60;;;;;;;11.19;38.23;101164.88;1724761;83;21156;-75
2021/04/25 09:00:40;;;;;;;6.62;2.00;;;;;;;11.36;38.02;101157.84;1712002;81;21182;-74
2021/04/25 09:03:06;;;;;;;12.88;2.83;;;;;;;11.43;37.88;101159.71;1754980;81;21166;-75
2021/04/25 09:05:33;;;;;;;6.00;1.75;;;;;;;11.45;37.73;101160.41;1747588;81;21270;-75
2021/04/25 09:08:03;;;;;;;29.67;17.25;;;;;;;11.13;37.58;101168.17;1743559;81;21159;-75
2021/04/25 09:10:34;;;;;;;22.67;11.75;;;;;;;10.92;37.45;101162.33;1755775;81;21166;-74
2021/04/25 09:13:16;;;;;;;3.00;1.70;;;;;;;10.99;37.40;101163.39;1756351;81;21175;-75
2021/04/25 09:15:43;;;;;;;2.85;1.42;;;;;;;11.13;37.23;101164.66;1730454;81;21746;-74
2021/04/25 09:18:11;;;;;;;5.08;1.45;;;;;;;11.15;36.98;101157.36;1756463;81;21188;-74
2021/04/25 09:20:46;;;;;;;6.30;2.42;;;;;;;11.07;36.81;101158.13;1756032;81;21179;-74
2021/04/25 09:23:26;;;;;;;33.02;8.98;;;;;;;10.91;36.66;101151.30;1756493;81;21139;-75
2021/04/25 09:26:06;;;;;;;5.92;1.47;;;;;;;10.71;36.65;101151.13;1756336;81;21170;-74
2021/04/25 09:28:33;;;;;;;5.28;1.22;;;;;;;10.85;36.75;101154.59;1756494;81;21175;-75
2021/04/25 09:31:05;;;;;;;5.22;1.62;;;;;;;10.82;36.67;101153.56;1756455;81;21370;-74
2021/04/25 09:33:52;;;;;;;19.20;6.62;;;;;;;10.87;36.67;101145.95;1755326;81;21656;-75
2021/04/25 09:36:21;;;;;;;4.37;1.50;;;;;;;10.89;36.64;101143.95;1756369;81;21536;-74
2021/04/25 09:39:14;;;;;;;4.97;2.27;;;;;;;11.06;36.66;101143.09;1756253;81;21583;-75
2021/04/25 09:41:40;;;;;;;5.03;1.82;;;;;;;11.14;36.69;101139.66;1756065;81;21166;-75
2021/04/25 09:44:07;;;;;;;5.60;2.50;;;;;;;10.95;36.50;101140.66;1734547;81;21193;-74
2021/04/25 09:46:57;;;;;;;2.67;1.15;;;;;;;10.81;36.44;101146.54;1750937;81;21687;-74
2021/04/25 09:49:49;;;;;;;4.35;1.15;;;;;;;10.73;36.33;101145.16;1756432;81;25608;-74
2021/04/25 09:52:28;;;;;;;8.63;3.80;;;;;;;10.59;36.29;101142.50;1756352;81;21156;-74
2021/04/25 09:55:26;;;;;;;7.92;2.20;;;;;;;10.57;36.16;101144.98;1758849;81;21187;-74
2021/04/25 09:58:00;;;;;;;3.45;1.37;;;;;;;10.62;36.01;101149.37;1759263;81;21320;-74
2021/04/25 10:00:47;;;;;;;2.05;1.02;;;;;;;10.52;35.86;101148.94;1730022;81;21632;-74
2021/04/25 10:03:11;;;;;;;2.42;1.27;;;;;;;10.63;35.87;101159.88;1755814;81;21146;-74
2021/04/25 10:05:39;;;;;;;5.37;1.62;;;;;;;10.55;35.72;101145.64;1756531;81;21163;-74
2021/04/25 10:08:06;;;;;;;8.28;3.98;;;;;;;10.48;35.68;101148.89;1756320;80;21136;-74
2021/04/25 10:10:33;;;;;;;9.25;2.95;;;;;;;10.43;35.55;101147.67;1755404;80;21202;-74
2021/04/25 10:13:00;;;;;;;7.87;3.55;;;;;;;10.56;35.53;101148.14;1756004;81;21195;-74
2021/04/25 10:15:26;;;;;;;3.08;1.45;;;;;;;10.79;35.42;101146.71;1756127;80;21150;-74
2021/04/25 10:17:54;;;;;;;8.93;1.50;;;;;;;10.68;35.22;101143.42;1756252;81;21130;-75
2021/04/25 10:20:22;;;;;;;4.12;1.15;;;;;;;10.42;35.10;101146.83;1756254;81;21155;-72
2021/04/25 10:22:49;;;;;;;1.22;1.02;;;;;;;10.46;35.18;101144.22;1756284;81;21361;-72
2021/04/25 10:25:23;;;;;;;4.37;1.85;;;;;;;10.82;35.20;101133.55;1756104;81;21186;-72
2021/04/25 10:27:56;;;;;;;6.97;3.00;;;;;;;11.03;35.15;101131.40;1754770;81;21163;-71
2021/04/25 10:30:23;;;;;;;4.97;1.52;;;;;;;11.09;34.96;101123.25;1755912;81;21150;-71
2021/04/25 10:32:53;;;;;;;4.45;1.50;;;;;;;11.14;34.88;101128.48;1756001;81;21146;-71
2021/04/25 10:35:22;;;;;;;2.27;1.00;;;;;;;11.09;34.79;101124.09;1756293;81;21305;-71
2021/04/25 10:37:49;;;;;;;3.80;1.00;;;;;;;10.96;34.69;101126.33;1735676;81;21765;-71
2021/04/25 10:40:21;;;;;;;13.38;4.97;;;;;;;11.02;34.74;101118.55;1756489;81;21119;-72
2021/04/25 10:42:57;;;;;;;7.83;2.70;;;;;;;11.09;34.73;101120.09;1756330;81;21166;-71
2021/04/25 10:45:29;;;;;;;9.70;2.70;;;;;;;11.08;34.63;101125.11;1754370;81;21163;-71
2021/04/25 10:48:24;;;;;;;3.60;1.15;;;;;;;11.19;34.45;101129.36;1756923;81;21249;-71
2021/04/25 10:50:56;;;;;;;3.02;1.07;;;;;;;11.29;34.37;101136.28;1756860;81;21198;-71
2021/04/25 10:53:25;;;;;;;7.78;1.30;;;;;;;11.22;34.24;101115.70;1757200;81;21139;-71
2021/04/25 10:56:14;;;;;;;3.83;1.60;;;;;;;10.87;33.73;101128.08;1759505;81;21651;-71
2021/04/25 10:58:43;;;;;;;12.65;8.75;;;;;;;10.77;33.63;101131.33;1729790;78;21630;-71
2021/04/25 11:01:13;;;;;;;9.83;2.10;;;;;;;10.96;33.53;101134.34;1757987;80;21713;-71
2021/04/25 11:03:40;;;;;;;4.33;1.20;;;;;;;11.05;33.48;101144.60;1739135;81;21277;-71
2021/04/25 11:06:25;;;;;;;12.93;2.75;;;;;;;11.04;33.34;101146.42;1748283;81;21163;-71
2021/04/25 11:08:51;;;;;;;11.18;2.33;;;;;;;10.39;33.42;101164.47;1749865;81;21150;-71
2021/04/25 11:11:34;;;;;;;6.15;1.95;;;;;;;9.59;34.26;101178.05;1740579;81;21202;-71
2021/04/25 11:14:01;;;;;;;10.60;2.83;;;;;;;9.39;35.04;101170.09;1722766;81;21607;-70
2021/04/25 11:16:29;;;;;;;8.10;3.00;;;;;;;9.32;35.73;101191.62;1722577;83;21171;-71
2021/04/25 11:19:11;;;;;;;7.58;2.60;;;;;;;8.92;36.41;101184.31;1722564;83;21626;-70
2021/04/25 11:21:56;;;;;;;6.60;2.77;;;;;;;8.73;37.19;101196.25;1729627;80;21163;-70
2021/04/25 11:24:27;;;;;;;7.90;2.33;;;;;;;8.79;38.15;101203.70;1751430;81;21197;-70
2021/04/25 11:26:56;;;;;;;7.05;2.58;;;;;;;8.73;38.63;101201.58;1759668;81;21264;-70
2021/04/25 11:29:29;;;;;;;13.80;5.03;;;;;;;8.82;39.05;101188.80;1754311;81;21195;-70